createdAt,value
2019-05-01T11:59:28.564Z,11.90
2019-05-01T12:01:57.521Z,12.00
2019-05-01T12:04:26.434Z,12.10
2019-05-01T12:09:23.798Z,12.20
2019-05-01T12:11:55.719Z,12.40
2019-05-01T12:14:24.531Z,12.60
2019-05-01T12:17:15.215Z,12.60
2019-05-01T12:19:44.026Z,12.70
2019-05-01T12:22:12.900Z,12.70
2019-05-01T12:24:42.067Z,12.70
2019-05-01T12:27:10.943Z,12.80
2019-05-01T12:29:41.542Z,15.80
2019-05-01T12:32:10.419Z,13.00
2019-05-01T12:34:39.623Z,13.00
2019-05-01T12:37:26.127Z,13.00
2019-05-01T12:39:54.935Z,13.20
2019-05-01T12:42:25.092Z,13.20
2019-05-01T12:44:53.972Z,13.20
2019-05-01T12:47:42.164Z,13.30
2019-05-01T12:50:11.235Z,13.30
2019-05-01T12:53:02.302Z,13.20
2019-05-01T12:55:44.962Z,13.20
2019-05-01T12:58:14.155Z,13.20
2019-05-01T13:00:44.437Z,13.20
2019-05-01T13:03:13.981Z,13.30
2019-05-01T13:05:42.979Z,13.40
2019-05-01T13:08:12.031Z,13.40
2019-05-01T13:10:42.382Z,14.90
2019-05-01T13:13:11.444Z,16.10
2019-05-01T13:15:41.587Z,13.60
2019-05-01T13:18:10.548Z,13.70
2019-05-01T13:20:39.519Z,13.50
2019-05-01T13:23:08.404Z,13.50
2019-05-01T13:25:37.716Z,13.40
2019-05-01T13:28:31.532Z,13.40
2019-05-01T13:31:19.563Z,13.40
2019-05-01T13:33:49.024Z,13.60
2019-05-01T13:36:17.912Z,13.80
2019-05-01T13:38:47.060Z,13.80
2019-05-01T13:41:17.232Z,14.00
2019-05-01T13:43:46.149Z,14.20
2019-05-01T13:46:15.199Z,14.40
2019-05-01T13:48:44.013Z,14.40
2019-05-01T13:51:12.969Z,14.50
2019-05-01T13:53:42.066Z,14.70
2019-05-01T13:56:11.627Z,14.80
2019-05-01T13:58:40.583Z,14.70
2019-05-01T14:01:09.683Z,14.60
2019-05-01T14:03:38.669Z,14.50
2019-05-01T14:06:07.799Z,14.60
2019-05-01T14:08:36.699Z,14.80
2019-05-01T14:11:05.648Z,14.80
2019-05-01T14:13:34.508Z,14.90
2019-05-01T14:16:03.384Z,15.00
2019-05-01T14:18:32.506Z,15.00
2019-05-01T14:21:27.183Z,14.90
2019-05-01T14:24:16.269Z,14.80
2019-05-01T14:26:45.181Z,14.50
2019-05-01T14:29:14.237Z,14.30
2019-05-01T14:31:44.497Z,14.30
2019-05-01T14:34:13.758Z,14.30
2019-05-01T14:36:42.631Z,14.20
2019-05-01T14:39:11.530Z,14.10
2019-05-01T14:41:40.423Z,14.10
2019-05-01T14:44:09.530Z,14.10
2019-05-01T14:46:38.620Z,14.30
2019-05-01T14:49:07.575Z,14.70
2019-05-01T14:51:36.657Z,15.20
2019-05-01T14:54:05.691Z,15.30
2019-05-01T14:56:35.089Z,15.50
2019-05-01T14:59:04.255Z,15.70
2019-05-01T15:01:33.175Z,15.70
2019-05-01T15:04:02.209Z,15.80
2019-05-01T15:06:31.731Z,15.80
2019-05-01T15:09:01.178Z,15.90
2019-05-01T15:11:30.481Z,16.10
2019-05-01T15:14:06.160Z,16.20
2019-05-01T15:16:52.268Z,16.30
2019-05-01T15:19:23.871Z,16.40
2019-05-01T15:21:52.678Z,16.30
2019-05-01T15:24:21.597Z,16.70
2019-05-01T15:26:50.521Z,16.00
2019-05-01T15:29:19.519Z,16.00
2019-05-01T15:31:48.648Z,15.80
2019-05-01T15:34:17.959Z,15.60
2019-05-01T15:36:46.921Z,15.30
2019-05-01T15:39:26.690Z,15.00
2019-05-01T15:42:20.514Z,14.80
2019-05-01T15:44:49.470Z,14.70
2019-05-01T15:47:18.816Z,14.70
2019-05-01T15:49:47.983Z,14.80
2019-05-01T15:52:17.217Z,15.00
